sensor_id;sensor_type;location;lat;lon;timestamp;P1;durP1;ratioP1;P2;durP2;ratioP2
23868;SDS011;12115;47.128;15.422;2023-08-20T00:01:22;15.35;;;12.27;;
23868;SDS011;12115;47.128;15.422;2023-08-20T00:03:51;12.15;;;11.02;;
23868;SDS011;12115;47.128;15.422;2023-08-20T00:06:19;11.98;;;10.77;;
23868;SDS011;12115;47.128;15.422;2023-08-20T00:08:47;12.43;;;11.23;;
23868;SDS011;12115;47.128;15.422;2023-08-20T00:11:15;12.48;;;11.38;;
23868;SDS011;12115;47.128;15.422;2023-08-20T00:13:43;11.15;;;9.48;;
23868;SDS011;12115;47.128;15.422;2023-08-20T00:16:10;17.13;;;11.15;;
23868;SDS011;12115;47.128;15.422;2023-08-20T00:18:38;12.52;;;11.32;;
23868;SDS011;12115;47.128;15.422;2023-08-20T00:21:06;13.68;;;12.27;;
23868;SDS011;12115;47.128;15.422;2023-08-20T00:23:34;12.88;;;11.35;;
23868;SDS011;12115;47.128;15.422;2023-08-20T00:26:03;12.32;;;11.02;;
23868;SDS011;12115;47.128;15.422;2023-08-20T00:28:30;12.65;;;11.45;;
23868;SDS011;12115;47.128;15.422;2023-08-20T00:31:00;13.65;;;12.00;;
23868;SDS011;12115;47.128;15.422;2023-08-20T00:33:28;14.32;;;10.43;;
23868;SDS011;12115;47.128;15.422;2023-08-20T00:35:55;11.40;;;9.82;;
23868;SDS011;12115;47.128;15.422;2023-08-20T00:38:22;11.45;;;10.25;;
23868;SDS011;12115;47.128;15.422;2023-08-20T00:40:49;13.82;;;10.60;;
23868;SDS011;12115;47.128;15.422;2023-08-20T00:43:16;12.07;;;11.00;;
23868;SDS011;12115;47.128;15.422;2023-08-20T00:45:43;15.68;;;11.27;;
23868;SDS011;12115;47.128;15.422;2023-08-20T00:48:11;12.00;;;10.80;;
23868;SDS011;12115;47.128;15.422;2023-08-20T00:50:38;11.73;;;10.43;;
23868;SDS011;12115;47.128;15.422;2023-08-20T00:53:07;12.10;;;11.00;;
23868;SDS011;12115;47.128;15.422;2023-08-20T00:55:36;11.93;;;10.82;;
23868;SDS011;12115;47.128;15.422;2023-08-20T00:58:04;11.65;;;10.55;;
23868;SDS011;12115;47.128;15.422;2023-08-20T01:00:32;14.00;;;12.00;;
23868;SDS011;12115;47.128;15.422;2023-08-20T01:02:59;13.88;;;10.65;;
23868;SDS011;12115;47.128;15.422;2023-08-20T01:05:26;12.65;;;11.00;;
23868;SDS011;12115;47.128;15.422;2023-08-20T01:13:40;12.65;;;10.77;;
23868;SDS011;12115;47.128;15.422;2023-08-20T01:16:07;11.43;;;10.40;;
23868;SDS011;12115;47.128;15.422;2023-08-20T01:18:34;11.90;;;10.75;;
23868;SDS011;12115;47.128;15.422;2023-08-20T01:21:02;11.85;;;9.52;;
23868;SDS011;12115;47.128;15.422;2023-08-20T01:23:55;12.32;;;10.80;;
23868;SDS011;12115;47.128;15.422;2023-08-20T01:30:07;11.90;;;10.70;;
23868;SDS011;12115;47.128;15.422;2023-08-20T01:32:36;11.52;;;10.43;;
23868;SDS011;12115;47.128;15.422;2023-08-20T01:35:12;13.32;;;11.57;;
23868;SDS011;12115;47.128;15.422;2023-08-20T01:37:42;12.45;;;11.15;;
23868;SDS011;12115;47.128;15.422;2023-08-20T01:40:10;13.05;;;10.43;;
23868;SDS011;12115;47.128;15.422;2023-08-20T01:42:37;13.02;;;11.60;;
23868;SDS011;12115;47.128;15.422;2023-08-20T01:45:06;11.93;;;10.57;;
23868;SDS011;12115;47.128;15.422;2023-08-20T01:47:35;12.07;;;10.30;;
23868;SDS011;12115;47.128;15.422;2023-08-20T01:50:03;15.43;;;10.90;;
23868;SDS011;12115;47.128;15.422;2023-08-20T01:52:33;13.52;;;10.63;;
23868;SDS011;12115;47.128;15.422;2023-08-20T01:55:03;11.27;;;9.95;;
23868;SDS011;12115;47.128;15.422;2023-08-20T01:57:31;16.88;;;10.40;;
23868;SDS011;12115;47.128;15.422;2023-08-20T01:59:59;11.27;;;10.02;;
23868;SDS011;12115;47.128;15.422;2023-08-20T02:02:26;10.48;;;9.38;;
23868;SDS011;12115;47.128;15.422;2023-08-20T02:04:54;15.70;;;11.93;;
23868;SDS011;12115;47.128;15.422;2023-08-20T02:07:21;12.20;;;10.98;;
23868;SDS011;12115;47.128;15.422;2023-08-20T02:09:48;11.40;;;10.18;;
23868;SDS011;12115;47.128;15.422;2023-08-20T02:12:15;14.82;;;10.95;;
23868;SDS011;12115;47.128;15.422;2023-08-20T02:14:42;12.10;;;10.70;;
23868;SDS011;12115;47.128;15.422;2023-08-20T02:17:09;10.35;;;9.30;;
23868;SDS011;12115;47.128;15.422;2023-08-20T02:19:38;12.18;;;10.88;;
23868;SDS011;12115;47.128;15.422;2023-08-20T02:22:05;12.65;;;11.07;;
23868;SDS011;12115;47.128;15.422;2023-08-20T02:24:32;15.05;;;11.57;;
23868;SDS011;12115;47.128;15.422;2023-08-20T02:26:59;11.57;;;10.48;;
23868;SDS011;12115;47.128;15.422;2023-08-20T02:29:26;12.43;;;11.23;;
23868;SDS011;12115;47.128;15.422;2023-08-20T02:31:53;13.95;;;12.55;;
23868;SDS011;12115;47.128;15.422;2023-08-20T02:34:22;15.00;;;12.30;;
23868;SDS011;12115;47.128;15.422;2023-08-20T02:36:49;12.70;;;11.20;;
23868;SDS011;12115;47.128;15.422;2023-08-20T02:39:16;10.85;;;9.75;;
23868;SDS011;12115;47.128;15.422;2023-08-20T02:41:43;13.25;;;11.40;;
23868;SDS011;12115;47.128;15.422;2023-08-20T02:44:10;11.57;;;10.35;;
23868;SDS011;12115;47.128;15.422;2023-08-20T02:46:37;12.15;;;10.95;;
23868;SDS011;12115;47.128;15.422;2023-08-20T02:49:04;12.57;;;11.35;;
23868;SDS011;12115;47.128;15.422;2023-08-20T02:51:31;11.45;;;10.35;;
23868;SDS011;12115;47.128;15.422;2023-08-20T02:53:59;16.63;;;11.38;;
23868;SDS011;12115;47.128;15.422;2023-08-20T02:56:26;12.93;;;11.57;;
23868;SDS011;12115;47.128;15.422;2023-08-20T02:58:53;12.70;;;10.50;;
23868;SDS011;12115;47.128;15.422;2023-08-20T03:01:20;11.98;;;10.70;;
23868;SDS011;12115;47.128;15.422;2023-08-20T03:03:49;12.73;;;10.60;;
23868;SDS011;12115;47.128;15.422;2023-08-20T03:06:16;14.05;;;11.23;;
23868;SDS011;12115;47.128;15.422;2023-08-20T03:08:43;13.75;;;12.27;;
23868;SDS011;12115;47.128;15.422;2023-08-20T03:11:10;11.00;;;9.90;;
23868;SDS011;12115;47.128;15.422;2023-08-20T03:13:37;12.20;;;10.40;;
23868;SDS011;12115;47.128;15.422;2023-08-20T03:16:04;11.45;;;10.32;;
23868;SDS011;12115;47.128;15.422;2023-08-20T03:18:32;10.13;;;9.13;;
23868;SDS011;12115;47.128;15.422;2023-08-20T03:20:58;11.13;;;10.00;;
23868;SDS011;12115;47.128;15.422;2023-08-20T03:23:26;12.15;;;10.60;;
23868;SDS011;12115;47.128;15.422;2023-08-20T03:25:57;11.80;;;10.52;;
23868;SDS011;12115;47.128;15.422;2023-08-20T03:28:25;11.98;;;10.23;;
23868;SDS011;12115;47.128;15.422;2023-08-20T03:30:52;12.68;;;11.07;;
23868;SDS011;12115;47.128;15.422;2023-08-20T03:33:24;11.15;;;9.93;;
23868;SDS011;12115;47.128;15.422;2023-08-20T03:35:52;11.25;;;10.02;;
23868;SDS011;12115;47.128;15.422;2023-08-20T03:38:19;11.77;;;10.68;;
23868;SDS011;12115;47.128;15.422;2023-08-20T03:40:46;15.63;;;11.90;;
23868;SDS011;12115;47.128;15.422;2023-08-20T03:43:14;13.02;;;10.52;;
23868;SDS011;12115;47.128;15.422;2023-08-20T03:45:41;13.32;;;10.18;;
23868;SDS011;12115;47.128;15.422;2023-08-20T03:48:08;11.52;;;10.30;;
23868;SDS011;12115;47.128;15.422;2023-08-20T03:50:35;11.75;;;10.23;;
23868;SDS011;12115;47.128;15.422;2023-08-20T03:53:03;10.30;;;9.20;;
23868;SDS011;12115;47.128;15.422;2023-08-20T03:55:32;9.48;;;8.15;;
23868;SDS011;12115;47.128;15.422;2023-08-20T03:57:59;13.02;;;11.70;;
23868;SDS011;12115;47.128;15.422;2023-08-20T04:00:26;14.45;;;10.90;;
23868;SDS011;12115;47.128;15.422;2023-08-20T04:02:53;11.07;;;10.00;;
23868;SDS011;12115;47.128;15.422;2023-08-20T04:05:20;14.75;;;11.45;;
23868;SDS011;12115;47.128;15.422;2023-08-20T04:07:48;10.52;;;9.52;;
23868;SDS011;12115;47.128;15.422;2023-08-20T04:10:18;11.77;;;9.85;;
23868;SDS011;12115;47.128;15.422;2023-08-20T04:12:45;12.23;;;10.27;;
23868;SDS011;12115;47.128;15.422;2023-08-20T04:15:12;10.18;;;9.05;;
23868;SDS011;12115;47.128;15.422;2023-08-20T04:17:39;15.93;;;10.18;;
23868;SDS011;12115;47.128;15.422;2023-08-20T04:20:06;12.70;;;11.23;;
23868;SDS011;12115;47.128;15.422;2023-08-20T04:22:35;11.93;;;10.82;;
23868;SDS011;12115;47.128;15.422;2023-08-20T04:25:04;10.60;;;9.60;;
23868;SDS011;12115;47.128;15.422;2023-08-20T04:27:32;11.02;;;10.05;;
23868;SDS011;12115;47.128;15.422;2023-08-20T04:30:03;11.57;;;10.43;;
23868;SDS011;12115;47.128;15.422;2023-08-20T04:32:31;10.60;;;9.50;;
23868;SDS011;12115;47.128;15.422;2023-08-20T04:34:58;10.98;;;9.88;;
23868;SDS011;12115;47.128;15.422;2023-08-20T04:37:26;13.80;;;9.65;;
23868;SDS011;12115;47.128;15.422;2023-08-20T04:39:53;11.40;;;9.85;;
23868;SDS011;12115;47.128;15.422;2023-08-20T04:42:21;11.38;;;10.25;;
23868;SDS011;12115;47.128;15.422;2023-08-20T04:44:48;12.80;;;10.07;;
23868;SDS011;12115;47.128;15.422;2023-08-20T04:47:16;10.15;;;9.07;;
23868;SDS011;12115;47.128;15.422;2023-08-20T04:49:43;12.43;;;10.30;;
23868;SDS011;12115;47.128;15.422;2023-08-20T04:52:10;12.25;;;11.05;;
23868;SDS011;12115;47.128;15.422;2023-08-20T04:54:37;11.32;;;10.32;;
23868;SDS011;12115;47.128;15.422;2023-08-20T04:57:04;10.60;;;9.60;;
23868;SDS011;12115;47.128;15.422;2023-08-20T04:59:31;12.77;;;11.48;;
23868;SDS011;12115;47.128;15.422;2023-08-20T05:01:58;13.93;;;12.63;;
23868;SDS011;12115;47.128;15.422;2023-08-20T05:04:48;13.63;;;12.20;;
23868;SDS011;12115;47.128;15.422;2023-08-20T05:07:15;10.65;;;9.65;;
23868;SDS011;12115;47.128;15.422;2023-08-20T05:09:43;15.43;;;12.15;;
23868;SDS011;12115;47.128;15.422;2023-08-20T05:12:10;9.90;;;8.90;;
23868;SDS011;12115;47.128;15.422;2023-08-20T05:14:37;11.88;;;10.57;;
23868;SDS011;12115;47.128;15.422;2023-08-20T05:17:05;9.25;;;8.35;;
23868;SDS011;12115;47.128;15.422;2023-08-20T05:19:32;8.63;;;7.88;;
23868;SDS011;12115;47.128;15.422;2023-08-20T05:21:59;8.82;;;7.90;;
23868;SDS011;12115;47.128;15.422;2023-08-20T05:24:31;14.20;;;12.00;;
23868;SDS011;12115;47.128;15.422;2023-08-20T05:29:36;14.65;;;13.18;;
23868;SDS011;12115;47.128;15.422;2023-08-20T05:32:05;12.07;;;10.98;;
23868;SDS011;12115;47.128;15.422;2023-08-20T05:34:36;13.77;;;12.13;;
23868;SDS011;12115;47.128;15.422;2023-08-20T05:37:03;13.02;;;11.73;;
23868;SDS011;12115;47.128;15.422;2023-08-20T05:39:35;14.63;;;13.13;;
23868;SDS011;12115;47.128;15.422;2023-08-20T05:42:04;13.63;;;12.30;;
23868;SDS011;12115;47.128;15.422;2023-08-20T05:44:31;13.95;;;12.27;;
23868;SDS011;12115;47.128;15.422;2023-08-20T05:46:59;13.10;;;11.93;;
23868;SDS011;12115;47.128;15.422;2023-08-20T05:49:27;13.43;;;12.02;;
23868;SDS011;12115;47.128;15.422;2023-08-20T05:51:57;15.80;;;14.20;;
23868;SDS011;12115;47.128;15.422;2023-08-20T05:54:24;14.70;;;13.20;;
23868;SDS011;12115;47.128;15.422;2023-08-20T05:56:53;18.70;;;13.80;;
23868;SDS011;12115;47.128;15.422;2023-08-20T05:59:20;15.25;;;13.10;;
23868;SDS011;12115;47.128;15.422;2023-08-20T06:01:47;13.73;;;12.40;;
23868;SDS011;12115;47.128;15.422;2023-08-20T06:04:14;14.02;;;12.57;;
23868;SDS011;12115;47.128;15.422;2023-08-20T06:06:41;12.02;;;10.93;;
23868;SDS011;12115;47.128;15.422;2023-08-20T06:09:08;16.48;;;13.75;;
23868;SDS011;12115;47.128;15.422;2023-08-20T06:11:35;10.68;;;9.68;;
23868;SDS011;12115;47.128;15.422;2023-08-20T06:14:03;12.48;;;10.50;;
23868;SDS011;12115;47.128;15.422;2023-08-20T06:16:30;14.48;;;12.98;;
23868;SDS011;12115;47.128;15.422;2023-08-20T06:18:57;12.60;;;11.50;;
23868;SDS011;12115;47.128;15.422;2023-08-20T06:21:28;14.93;;;12.30;;
23868;SDS011;12115;47.128;15.422;2023-08-20T06:23:55;13.77;;;12.48;;
23868;SDS011;12115;47.128;15.422;2023-08-20T06:26:22;13.38;;;12.00;;
23868;SDS011;12115;47.128;15.422;2023-08-20T06:28:49;12.57;;;11.45;;
23868;SDS011;12115;47.128;15.422;2023-08-20T06:31:16;13.88;;;10.57;;
23868;SDS011;12115;47.128;15.422;2023-08-20T06:33:44;13.23;;;10.85;;
23868;SDS011;12115;47.128;15.422;2023-08-20T06:36:11;13.20;;;11.88;;
23868;SDS011;12115;47.128;15.422;2023-08-20T06:38:38;12.25;;;10.48;;
23868;SDS011;12115;47.128;15.422;2023-08-20T06:41:05;13.20;;;11.88;;
23868;SDS011;12115;47.128;15.422;2023-08-20T06:43:32;13.25;;;11.30;;
23868;SDS011;12115;47.128;15.422;2023-08-20T06:45:59;12.98;;;11.77;;
23868;SDS011;12115;47.128;15.422;2023-08-20T06:48:26;11.75;;;10.65;;
23868;SDS011;12115;47.128;15.422;2023-08-20T06:50:53;12.13;;;10.57;;
23868;SDS011;12115;47.128;15.422;2023-08-20T06:53:20;10.80;;;9.70;;
23868;SDS011;12115;47.128;15.422;2023-08-20T06:55:47;11.90;;;10.80;;
23868;SDS011;12115;47.128;15.422;2023-08-20T06:58:14;11.77;;;10.02;;
23868;SDS011;12115;47.128;15.422;2023-08-20T07:00:41;9.93;;;8.93;;
23868;SDS011;12115;47.128;15.422;2023-08-20T07:03:08;9.95;;;8.90;;
23868;SDS011;12115;47.128;15.422;2023-08-20T07:05:35;10.48;;;9.38;;
23868;SDS011;12115;47.128;15.422;2023-08-20T07:08:02;12.82;;;9.90;;
23868;SDS011;12115;47.128;15.422;2023-08-20T07:10:30;10.88;;;9.57;;
23868;SDS011;12115;47.128;15.422;2023-08-20T07:12:57;11.00;;;9.88;;
23868;SDS011;12115;47.128;15.422;2023-08-20T07:15:24;10.50;;;9.60;;
23868;SDS011;12115;47.128;15.422;2023-08-20T07:17:51;10.63;;;9.63;;
23868;SDS011;12115;47.128;15.422;2023-08-20T07:20:18;10.38;;;9.38;;
23868;SDS011;12115;47.128;15.422;2023-08-20T07:22:45;10.82;;;9.73;;
23868;SDS011;12115;47.128;15.422;2023-08-20T07:25:12;10.48;;;9.57;;
23868;SDS011;12115;47.128;15.422;2023-08-20T07:27:39;10.40;;;9.40;;
23868;SDS011;12115;47.128;15.422;2023-08-20T07:30:09;10.77;;;9.68;;
23868;SDS011;12115;47.128;15.422;2023-08-20T07:32:37;10.85;;;9.85;;
23868;SDS011;12115;47.128;15.422;2023-08-20T07:35:04;11.57;;;9.68;;
23868;SDS011;12115;47.128;15.422;2023-08-20T07:37:37;10.02;;;9.13;;
23868;SDS011;12115;47.128;15.422;2023-08-20T07:40:04;10.60;;;9.55;;
23868;SDS011;12115;47.128;15.422;2023-08-20T07:42:31;10.15;;;9.07;;
23868;SDS011;12115;47.128;15.422;2023-08-20T07:44:58;12.75;;;9.85;;
23868;SDS011;12115;47.128;15.422;2023-08-20T07:47:26;11.48;;;9.93;;
23868;SDS011;12115;47.128;15.422;2023-08-20T07:49:55;11.07;;;9.90;;
23868;SDS011;12115;47.128;15.422;2023-08-20T07:52:22;9.82;;;8.93;;
23868;SDS011;12115;47.128;15.422;2023-08-20T07:54:50;11.02;;;9.13;;
23868;SDS011;12115;47.128;15.422;2023-08-20T07:57:17;10.63;;;9.18;;
23868;SDS011;12115;47.128;15.422;2023-08-20T07:59:44;11.30;;;8.70;;
23868;SDS011;12115;47.128;15.422;2023-08-20T08:02:11;10.48;;;9.38;;
23868;SDS011;12115;47.128;15.422;2023-08-20T08:04:38;9.85;;;8.15;;
23868;SDS011;12115;47.128;15.422;2023-08-20T08:07:08;8.45;;;7.57;;
23868;SDS011;12115;47.128;15.422;2023-08-20T08:09:36;9.45;;;8.25;;
23868;SDS011;12115;47.128;15.422;2023-08-20T08:12:04;8.30;;;7.50;;
23868;SDS011;12115;47.128;15.422;2023-08-20T08:14:31;8.73;;;7.95;;
23868;SDS011;12115;47.128;15.422;2023-08-20T08:16:58;10.38;;;8.23;;
23868;SDS011;12115;47.128;15.422;2023-08-20T08:19:25;8.48;;;7.40;;
23868;SDS011;12115;47.128;15.422;2023-08-20T08:21:53;8.25;;;7.55;;
23868;SDS011;12115;47.128;15.422;2023-08-20T08:24:21;9.32;;;7.93;;
23868;SDS011;12115;47.128;15.422;2023-08-20T08:26:48;11.50;;;8.10;;
23868;SDS011;12115;47.128;15.422;2023-08-20T08:29:15;9.88;;;8.05;;
23868;SDS011;12115;47.128;15.422;2023-08-20T08:31:42;8.48;;;7.68;;
23868;SDS011;12115;47.128;15.422;2023-08-20T08:34:09;9.20;;;8.30;;
23868;SDS011;12115;47.128;15.422;2023-08-20T08:36:40;9.00;;;8.05;;
23868;SDS011;12115;47.128;15.422;2023-08-20T08:40:17;8.95;;;7.43;;
23868;SDS011;12115;47.128;15.422;2023-08-20T08:46:49;7.85;;;6.97;;
23868;SDS011;12115;47.128;15.422;2023-08-20T08:49:21;9.53;;;7.13;;
23868;SDS011;12115;47.128;15.422;2023-08-20T08:52:01;8.38;;;7.28;;
23868;SDS011;12115;47.128;15.422;2023-08-20T08:55:03;7.30;;;6.55;;
23868;SDS011;12115;47.128;15.422;2023-08-20T08:57:38;7.53;;;6.47;;
23868;SDS011;12115;47.128;15.422;2023-08-20T09:00:06;7.10;;;6.50;;
23868;SDS011;12115;47.128;15.422;2023-08-20T09:02:34;9.13;;;6.85;;
23868;SDS011;12115;47.128;15.422;2023-08-20T09:05:01;7.70;;;6.82;;
23868;SDS011;12115;47.128;15.422;2023-08-20T09:07:29;10.07;;;6.90;;
23868;SDS011;12115;47.128;15.422;2023-08-20T09:09:59;9.10;;;7.20;;
23868;SDS011;12115;47.128;15.422;2023-08-20T09:12:27;8.05;;;7.13;;
23868;SDS011;12115;47.128;15.422;2023-08-20T09:14:55;9.82;;;7.03;;
23868;SDS011;12115;47.128;15.422;2023-08-20T09:17:26;7.30;;;6.60;;
23868;SDS011;12115;47.128;15.422;2023-08-20T09:19:55;8.35;;;7.00;;
23868;SDS011;12115;47.128;15.422;2023-08-20T09:22:26;8.55;;;7.75;;
23868;SDS011;12115;47.128;15.422;2023-08-20T09:24:54;6.88;;;6.18;;
23868;SDS011;12115;47.128;15.422;2023-08-20T09:27:23;11.27;;;7.20;;
23868;SDS011;12115;47.128;15.422;2023-08-20T09:29:51;7.38;;;6.72;;
23868;SDS011;12115;47.128;15.422;2023-08-20T09:32:22;7.17;;;6.50;;
23868;SDS011;12115;47.128;15.422;2023-08-20T09:34:51;8.82;;;6.43;;
23868;SDS011;12115;47.128;15.422;2023-08-20T09:37:20;7.38;;;6.60;;
23868;SDS011;12115;47.128;15.422;2023-08-20T09:39:49;7.25;;;5.82;;
23868;SDS011;12115;47.128;15.422;2023-08-20T09:42:17;7.63;;;6.28;;
23868;SDS011;12115;47.128;15.422;2023-08-20T09:44:45;6.95;;;5.85;;
23868;SDS011;12115;47.128;15.422;2023-08-20T09:47:17;6.95;;;6.22;;
23868;SDS011;12115;47.128;15.422;2023-08-20T09:49:45;8.05;;;6.35;;
23868;SDS011;12115;47.128;15.422;2023-08-20T09:52:35;7.75;;;7.03;;
23868;SDS011;12115;47.128;15.422;2023-08-20T09:55:20;9.48;;;6.18;;
23868;SDS011;12115;47.128;15.422;2023-08-20T09:57:49;8.73;;;6.30;;
23868;SDS011;12115;47.128;15.422;2023-08-20T10:00:17;7.47;;;6.00;;
23868;SDS011;12115;47.128;15.422;2023-08-20T10:02:44;6.90;;;6.20;;
23868;SDS011;12115;47.128;15.422;2023-08-20T10:05:12;7.82;;;5.78;;
23868;SDS011;12115;47.128;15.422;2023-08-20T10:07:43;8.20;;;6.47;;
23868;SDS011;12115;47.128;15.422;2023-08-20T10:10:11;8.80;;;6.15;;
23868;SDS011;12115;47.128;15.422;2023-08-20T10:12:40;8.23;;;5.80;;
23868;SDS011;12115;47.128;15.422;2023-08-20T10:15:12;7.22;;;6.00;;
23868;SDS011;12115;47.128;15.422;2023-08-20T10:17:44;8.00;;;5.82;;
23868;SDS011;12115;47.128;15.422;2023-08-20T10:20:13;6.13;;;5.63;;
23868;SDS011;12115;47.128;15.422;2023-08-20T10:22:44;7.13;;;5.18;;
23868;SDS011;12115;47.128;15.422;2023-08-20T10:25:22;6.15;;;5.43;;
23868;SDS011;12115;47.128;15.422;2023-08-20T10:27:54;9.65;;;5.70;;
23868;SDS011;12115;47.128;15.422;2023-08-20T10:33:55;6.18;;;5.43;;
23868;SDS011;12115;47.128;15.422;2023-08-20T10:36:24;5.65;;;5.15;;
23868;SDS011;12115;47.128;15.422;2023-08-20T10:41:29;7.57;;;5.60;;
23868;SDS011;12115;47.128;15.422;2023-08-20T10:43:58;6.40;;;5.80;;
23868;SDS011;12115;47.128;15.422;2023-08-20T10:46:29;6.03;;;5.18;;
23868;SDS011;12115;47.128;15.422;2023-08-20T10:49:02;5.82;;;5.20;;
23868;SDS011;12115;47.128;15.422;2023-08-20T10:51:34;6.18;;;4.80;;
23868;SDS011;12115;47.128;15.422;2023-08-20T10:54:05;6.28;;;4.90;;
23868;SDS011;12115;47.128;15.422;2023-08-20T10:59:22;7.05;;;4.68;;
23868;SDS011;12115;47.128;15.422;2023-08-20T11:01:59;6.60;;;4.80;;
23868;SDS011;12115;47.128;15.422;2023-08-20T11:04:30;7.32;;;4.68;;
23868;SDS011;12115;47.128;15.422;2023-08-20T11:07:01;6.65;;;4.68;;
23868;SDS011;12115;47.128;15.422;2023-08-20T11:09:30;6.60;;;4.70;;
23868;SDS011;12115;47.128;15.422;2023-08-20T11:11:58;8.13;;;5.00;;
23868;SDS011;12115;47.128;15.422;2023-08-20T11:14:25;6.03;;;4.50;;
23868;SDS011;12115;47.128;15.422;2023-08-20T11:16:53;6.60;;;5.03;;
23868;SDS011;12115;47.128;15.422;2023-08-20T11:19:22;9.57;;;4.78;;
23868;SDS011;12115;47.128;15.422;2023-08-20T11:21:50;7.13;;;4.93;;
23868;SDS011;12115;47.128;15.422;2023-08-20T11:24:18;5.97;;;5.28;;
23868;SDS011;12115;47.128;15.422;2023-08-20T11:26:47;7.15;;;4.95;;
23868;SDS011;12115;47.128;15.422;2023-08-20T11:29:15;7.07;;;5.18;;
23868;SDS011;12115;47.128;15.422;2023-08-20T11:31:49;6.75;;;4.93;;
23868;SDS011;12115;47.128;15.422;2023-08-20T11:34:30;5.43;;;4.93;;
23868;SDS011;12115;47.128;15.422;2023-08-20T11:36:58;8.27;;;4.95;;
23868;SDS011;12115;47.128;15.422;2023-08-20T11:39:26;9.20;;;4.47;;
23868;SDS011;12115;47.128;15.422;2023-08-20T11:41:58;5.35;;;4.70;;
23868;SDS011;12115;47.128;15.422;2023-08-20T11:44:27;6.70;;;4.50;;
23868;SDS011;12115;47.128;15.422;2023-08-20T11:46:54;6.57;;;4.80;;
23868;SDS011;12115;47.128;15.422;2023-08-20T11:49:28;5.68;;;5.07;;
23868;SDS011;12115;47.128;15.422;2023-08-20T11:51:56;6.95;;;4.95;;
23868;SDS011;12115;47.128;15.422;2023-08-20T11:54:23;5.60;;;5.10;;
23868;SDS011;12115;47.128;15.422;2023-08-20T11:57:01;6.63;;;5.00;;
23868;SDS011;12115;47.128;15.422;2023-08-20T11:59:32;11.00;;;5.05;;
23868;SDS011;12115;47.128;15.422;2023-08-20T12:02:10;6.15;;;5.18;;
23868;SDS011;12115;47.128;15.422;2023-08-20T12:05:33;5.05;;;4.55;;
23868;SDS011;12115;47.128;15.422;2023-08-20T12:08:01;5.75;;;4.78;;
23868;SDS011;12115;47.128;15.422;2023-08-20T12:10:29;5.40;;;4.80;;
23868;SDS011;12115;47.128;15.422;2023-08-20T12:13:00;6.57;;;4.85;;
23868;SDS011;12115;47.128;15.422;2023-08-20T12:16:35;7.78;;;5.18;;
23868;SDS011;12115;47.128;15.422;2023-08-20T12:19:02;8.18;;;5.28;;
23868;SDS011;12115;47.128;15.422;2023-08-20T12:21:30;5.30;;;4.80;;
23868;SDS011;12115;47.128;15.422;2023-08-20T12:23:57;9.48;;;4.93;;
23868;SDS011;12115;47.128;15.422;2023-08-20T12:26:24;7.55;;;5.15;;
23868;SDS011;12115;47.128;15.422;2023-08-20T12:28:51;5.53;;;4.97;;
23868;SDS011;12115;47.128;15.422;2023-08-20T12:31:18;7.60;;;5.07;;
23868;SDS011;12115;47.128;15.422;2023-08-20T12:33:46;5.53;;;5.10;;
23868;SDS011;12115;47.128;15.422;2023-08-20T12:36:13;5.22;;;4.70;;
23868;SDS011;12115;47.128;15.422;2023-08-20T12:38:40;6.00;;;4.75;;
23868;SDS011;12115;47.128;15.422;2023-08-20T12:41:08;5.95;;;4.57;;
23868;SDS011;12115;47.128;15.422;2023-08-20T12:43:35;7.75;;;5.47;;
23868;SDS011;12115;47.128;15.422;2023-08-20T12:46:02;5.78;;;4.70;;
23868;SDS011;12115;47.128;15.422;2023-08-20T12:48:30;6.80;;;4.80;;
23868;SDS011;12115;47.128;15.422;2023-08-20T12:50:57;6.07;;;5.07;;
23868;SDS011;12115;47.128;15.422;2023-08-20T12:53:24;7.18;;;4.80;;
23868;SDS011;12115;47.128;15.422;2023-08-20T12:59:31;5.65;;;4.65;;
23868;SDS011;12115;47.128;15.422;2023-08-20T13:02:19;6.88;;;4.40;;
23868;SDS011;12115;47.128;15.422;2023-08-20T13:05:05;5.35;;;4.65;;
23868;SDS011;12115;47.128;15.422;2023-08-20T13:08:01;5.65;;;4.95;;
23868;SDS011;12115;47.128;15.422;2023-08-20T13:10:33;6.85;;;4.75;;
23868;SDS011;12115;47.128;15.422;2023-08-20T13:13:01;5.78;;;5.10;;
23868;SDS011;12115;47.128;15.422;2023-08-20T13:15:29;9.52;;;5.28;;
23868;SDS011;12115;47.128;15.422;2023-08-20T13:18:00;8.88;;;5.03;;
23868;SDS011;12115;47.128;15.422;2023-08-20T13:20:34;9.25;;;5.15;;
23868;SDS011;12115;47.128;15.422;2023-08-20T13:23:03;8.73;;;5.10;;
23868;SDS011;12115;47.128;15.422;2023-08-20T13:25:32;8.35;;;4.72;;
23868;SDS011;12115;47.128;15.422;2023-08-20T13:27:59;6.47;;;4.95;;
23868;SDS011;12115;47.128;15.422;2023-08-20T13:30:27;6.90;;;4.80;;
23868;SDS011;12115;47.128;15.422;2023-08-20T13:32:55;5.50;;;4.70;;
23868;SDS011;12115;47.128;15.422;2023-08-20T13:35:25;5.53;;;4.50;;
23868;SDS011;12115;47.128;15.422;2023-08-20T13:41:27;5.75;;;5.10;;
23868;SDS011;12115;47.128;15.422;2023-08-20T13:48:08;6.63;;;5.00;;
23868;SDS011;12115;47.128;15.422;2023-08-20T13:50:38;6.38;;;4.88;;
23868;SDS011;12115;47.128;15.422;2023-08-20T13:53:05;7.65;;;4.80;;
23868;SDS011;12115;47.128;15.422;2023-08-20T13:55:37;5.50;;;5.00;;
23868;SDS011;12115;47.128;15.422;2023-08-20T13:58:08;5.47;;;4.70;;
23868;SDS011;12115;47.128;15.422;2023-08-20T14:00:40;6.00;;;5.22;;
23868;SDS011;12115;47.128;15.422;2023-08-20T14:03:10;6.30;;;4.78;;
23868;SDS011;12115;47.128;15.422;2023-08-20T14:05:39;5.05;;;4.55;;
23868;SDS011;12115;47.128;15.422;2023-08-20T14:08:08;5.03;;;4.53;;
23868;SDS011;12115;47.128;15.422;2023-08-20T14:10:37;5.65;;;4.70;;
23868;SDS011;12115;47.128;15.422;2023-08-20T14:13:05;5.57;;;4.57;;
23868;SDS011;12115;47.128;15.422;2023-08-20T14:15:33;10.15;;;5.40;;
23868;SDS011;12115;47.128;15.422;2023-08-20T14:21:44;6.03;;;4.78;;
23868;SDS011;12115;47.128;15.422;2023-08-20T14:24:13;5.35;;;4.38;;
23868;SDS011;12115;47.128;15.422;2023-08-20T14:29:12;5.00;;;4.50;;
23868;SDS011;12115;47.128;15.422;2023-08-20T14:31:40;5.78;;;5.18;;
23868;SDS011;12115;47.128;15.422;2023-08-20T14:34:12;6.57;;;5.30;;
23868;SDS011;12115;47.128;15.422;2023-08-20T14:38:23;5.60;;;5.10;;
23868;SDS011;12115;47.128;15.422;2023-08-20T14:41:25;7.95;;;5.35;;
23868;SDS011;12115;47.128;15.422;2023-08-20T14:44:02;7.55;;;5.45;;
23868;SDS011;12115;47.128;15.422;2023-08-20T14:46:30;5.45;;;4.93;;
23868;SDS011;12115;47.128;15.422;2023-08-20T14:48:57;7.50;;;5.18;;
23868;SDS011;12115;47.128;15.422;2023-08-20T14:51:26;7.07;;;5.35;;
23868;SDS011;12115;47.128;15.422;2023-08-20T14:53:59;6.32;;;5.55;;
23868;SDS011;12115;47.128;15.422;2023-08-20T14:56:27;5.68;;;5.10;;
23868;SDS011;12115;47.128;15.422;2023-08-20T14:58:55;5.50;;;5.10;;
23868;SDS011;12115;47.128;15.422;2023-08-20T15:01:27;6.75;;;5.20;;
23868;SDS011;12115;47.128;15.422;2023-08-20T15:03:57;6.25;;;5.50;;
23868;SDS011;12115;47.128;15.422;2023-08-20T15:06:31;8.03;;;5.60;;
23868;SDS011;12115;47.128;15.422;2023-08-20T15:08:59;6.10;;;5.47;;
23868;SDS011;12115;47.128;15.422;2023-08-20T15:11:27;7.97;;;5.70;;
23868;SDS011;12115;47.128;15.422;2023-08-20T15:14:05;9.95;;;5.20;;
23868;SDS011;12115;47.128;15.422;2023-08-20T15:16:39;6.50;;;5.20;;
23868;SDS011;12115;47.128;15.422;2023-08-20T15:19:07;5.70;;;5.20;;
23868;SDS011;12115;47.128;15.422;2023-08-20T15:21:39;5.65;;;4.88;;